Airfield :
LOGIN :

Register | Disclaimer

   EN    FR    IT 

 










Legend :    VFR   Marginal VFR   IFR   Intensive IFR   Very Intensive IFR
Visi :
Ceiling :
>= 8 km
>= 3000ft
5 to 8 km
1000 to 3000 ft
1500m to 5 km
500 to 1000 ft
800 to 1500m
200 to 500 ft
< 800m
< 200 ft
Symbols :   Thunderstorms  Fog  Heavy snow  Heavy precipitations  Wind > 20 kt
SIGMETs :     Misc.  Thunderstorms  Icing  Turbulence  Mountain Waves  Volcanic Ashes







- Airport Elevation : 117 ft
- IATA code : NWI
- Download approach charts


EGSH - Norwich

CURRENT METAR :
  • 220450Z AUTO 16006KT 130V190 1600 BR OVC001/// 08/08 Q1029

EXPIRED METARs :
  • 220420Z AUTO 18007KT 1700 BR OVC001/// 08/08 Q1029
  • 220350Z AUTO 20007KT 160V230 1200 BR OVC001/// 08/08 Q1029
  • 220320Z AUTO 18008KT 0900 FG OVC001/// 08/08 Q1030
  • 220250Z AUTO 18007KT 150V220 0700 FG OVC001/// 08/08 Q1030

TAF TAF EGSH
Valid from the 22 at 06:00 until the 22 at 15:00 UTC


220502Z 2206/2215 17006KT 2000 BR OVC001
BECMG 2206/2209 23012KT 9999 NSW SCT015
TEMPO 2209/2215 BKN014
ATIS : +44 1603 420 640
No reported NOTAMs for that airfield.



MET'MAP, your aeronautical weather chart ! - Copyright ORBIFLY December 2007 - Disclaimer

ORBIFLY MET'MAP TEAM :

Programming & Development : Alexandra Zaïnal
Concept & Development : Baudouin d'Aumeries
Co-Development & Prog : Marc-Olivier Méhu
Technical & hardware support : Manuel Goepfert

Contact : metmap@orbifly.com




SOURCES & CREDITS :

   NOAA